Terminal Aerodrome Forecast
Issued by NWS Riverton, WY

Home | Current Version | Previous Version | Text Only | Print | Product List | Glossary On
Versions: 1 2 3 4 5 6 7 8 9 10 11 12
000
FTUS45 KRIW 280500
TAFRIW
TAF
KRIW 280532Z 2806/2906 26006KT P6SM SCT090
     FM281000 29006KT P6SM SCT060 BKN090
     FM281500 36006KT P6SM VCSH SCT030 BKN050 PROB30 2816/2821 3SM
      -SNRA BKN025
     FM282300 33008KT P6SM SCT040 BKN060
     FM290500 31007KT P6SM SCT060=

USA.gov is the U.S. government's official web portal to all federal, state and local government web resources and services.